Time;durP1;ratioP1;P1;durP2;ratioP2;P2;SDS_P1;SDS_P2;PMS_P1;PMS_P2;Temp;Humidity;BMP_temperature;BMP_pressure;BME280_temperature;BME280_humidity;BME280_pressure;Samples;Min_cycle;Max_cycle;Signal;HPM_P1;HPM_P2
2021/12/14 00:01:21;;;;;;;17.17;10.10;;;5.40;99.90;;;;;;5048549;28;20201;-68
2021/12/14 00:03:51;;;;;;;20.67;10.73;;;5.40;99.90;;;;;;5048232;28;20228;-68
2021/12/14 00:06:22;;;;;;;20.00;9.77;;;5.40;99.90;;;;;;5047443;28;20624;-68
2021/12/14 00:08:55;;;;;;;19.58;9.45;;;5.40;99.90;;;;;;5049077;28;20201;-68
2021/12/14 00:11:37;;;;;;;19.02;11.20;;;5.40;99.90;;;;;;5048902;28;20201;-68
2021/12/14 00:14:25;;;;;;;23.90;11.38;;;5.40;99.90;;;;;;5049256;28;20256;-68
2021/12/14 00:16:58;;;;;;;23.70;9.80;;;5.30;99.90;;;;;;5048811;28;20227;-68
2021/12/14 00:19:26;;;;;;;16.52;9.38;;;5.30;99.90;;;;;;5049425;28;20311;-68
2021/12/14 00:22:02;;;;;;;18.77;10.75;;;5.30;99.90;;;;;;5048233;28;20209;-69
2021/12/14 00:24:28;;;;;;;17.00;9.77;;;5.20;99.90;;;;;;5049179;28;20254;-68
2021/12/14 00:26:57;;;;;;;27.73;10.25;;;5.20;99.90;;;;;;5048750;28;20201;-68
2021/12/14 00:29:28;;;;;;;20.02;9.60;;;5.20;99.90;;;;;;5049048;28;20558;-68
2021/12/14 00:31:58;;;;;;;19.85;9.32;;;5.20;99.90;;;;;;5051156;28;20212;-68
2021/12/14 00:34:36;;;;;;;18.88;9.45;;;5.20;99.90;;;;;;5052926;28;20679;-68
2021/12/14 00:37:05;;;;;;;17.42;9.05;;;5.10;99.90;;;;;;5053318;28;20209;-67
2021/12/14 00:39:32;;;;;;;15.90;9.88;;;5.10;99.90;;;;;;5052758;28;20221;-67
2021/12/14 00:42:00;;;;;;;21.25;10.00;;;5.10;99.90;;;;;;5052776;28;20201;-67
2021/12/14 00:44:27;;;;;;;13.77;7.90;;;5.20;99.90;;;;;;5052443;28;20201;-68
2021/12/14 00:46:54;;;;;;;19.00;9.85;;;5.20;99.90;;;;;;5053814;28;20298;-68
2021/12/14 00:49:21;;;;;;;14.00;7.35;;;5.20;99.90;;;;;;5052805;28;20201;-68
2021/12/14 00:51:48;;;;;;;25.85;8.50;;;5.30;99.90;;;;;;5052313;28;20209;-68
2021/12/14 00:54:18;;;;;;;11.05;6.85;;;5.30;99.90;;;;;;5053017;28;20205;-68
2021/12/14 00:56:47;;;;;;;13.68;6.90;;;5.30;99.90;;;;;;5052817;28;20582;-68
2021/12/14 00:59:16;;;;;;;14.30;7.07;;;5.20;99.90;;;;;;5052556;28;20304;-68
2021/12/14 01:04:32;;;;;;;11.80;6.97;;;5.20;99.90;;;;;;5110284;27;20525;-91
2021/12/14 01:07:00;;;;;;;13.52;7.90;;;5.20;99.90;;;;;;5110416;22;20231;-70
2021/12/14 01:09:29;;;;;;;11.40;7.40;;;5.20;99.90;;;;;;5087464;28;20199;-70
2021/12/14 01:12:04;;;;;;;12.95;6.88;;;5.20;99.90;;;;;;5088292;28;20199;-70
2021/12/14 01:14:41;;;;;;;16.35;7.22;;;5.20;99.90;;;;;;5108596;28;20222;-70
2021/12/14 01:17:14;;;;;;;13.48;6.72;;;5.20;99.90;;;;;;5107985;28;20198;-70
2021/12/14 01:19:48;;;;;;;15.10;8.45;;;5.30;99.90;;;;;;5108228;28;20290;-70
2021/12/14 01:22:32;;;;;;;13.70;7.80;;;5.20;99.90;;;;;;5107803;28;20709;-70
2021/12/14 01:25:08;;;;;;;13.88;7.40;;;5.20;99.90;;;;;;5107966;28;20206;-70
2021/12/14 01:27:44;;;;;;;21.10;8.27;;;5.20;99.90;;;;;;5108091;28;20194;-68
2021/12/14 01:30:22;;;;;;;11.25;6.85;;;5.20;99.90;;;;;;5107726;28;20203;-69
2021/12/14 01:32:50;;;;;;;12.90;7.65;;;5.30;99.90;;;;;;5106979;28;20215;-68
2021/12/14 01:35:25;;;;;;;12.23;7.65;;;5.30;99.90;;;;;;5107467;28;20689;-68
2021/12/14 01:38:02;;;;;;;11.07;7.07;;;5.30;99.90;;;;;;5107722;28;20211;-70
2021/12/14 01:43:30;;;;;;;17.73;8.52;;;5.40;99.90;;;;;;5074420;27;21064;-68
2021/12/14 01:46:00;;;;;;;14.95;8.25;;;5.30;99.90;;;;;;5067404;28;20201;-69
2021/12/14 01:48:26;;;;;;;11.63;6.95;;;5.30;99.90;;;;;;5067991;28;20572;-69
2021/12/14 01:50:57;;;;;;;16.33;7.82;;;5.30;99.90;;;;;;5066789;28;20200;-69
2021/12/14 01:53:25;;;;;;;13.73;7.43;;;5.30;99.90;;;;;;5067838;28;20773;-69
2021/12/14 01:55:54;;;;;;;17.38;7.35;;;5.30;99.90;;;;;;5067502;28;20247;-70
2021/12/14 01:58:22;;;;;;;15.10;8.20;;;5.30;99.90;;;;;;5067756;28;20204;-71
2021/12/14 02:00:55;;;;;;;14.30;7.85;;;5.40;99.90;;;;;;5067428;28;20200;-71
2021/12/14 02:03:29;;;;;;;12.85;7.95;;;5.40;99.90;;;;;;5067045;28;20315;-71
2021/12/14 02:05:56;;;;;;;18.15;7.55;;;5.40;99.90;;;;;;5067468;28;20204;-70
2021/12/14 02:08:25;;;;;;;14.38;7.43;;;5.40;99.90;;;;;;5067192;28;20208;-70
2021/12/14 02:10:52;;;;;;;16.30;7.93;;;5.40;99.90;;;;;;5066976;28;20200;-69
2021/12/14 02:13:26;;;;;;;18.83;8.80;;;5.40;99.90;;;;;;5066867;28;20711;-70
2021/12/14 02:15:54;;;;;;;14.30;8.35;;;5.50;99.90;;;;;;5067257;28;20200;-69
2021/12/14 02:18:23;;;;;;;18.55;8.55;;;5.50;99.90;;;;;;5069699;28;20211;-70
2021/12/14 02:20:56;;;;;;;14.85;8.82;;;5.40;99.90;;;;;;5066474;28;20232;-69
2021/12/14 02:23:24;;;;;;;13.88;8.75;;;5.40;99.90;;;;;;5067241;28;20576;-69
2021/12/14 02:25:52;;;;;;;14.35;7.85;;;5.40;99.90;;;;;;5066605;28;20580;-69
2021/12/14 02:28:21;;;;;;;22.77;8.35;;;5.40;99.90;;;;;;5067268;28;20204;-69
2021/12/14 02:30:52;;;;;;;14.35;8.05;;;5.40;99.90;;;;;;5066306;28;20845;-69
2021/12/14 02:33:22;;;;;;;14.30;7.55;;;5.40;99.90;;;;;;5067000;28;20244;-70
2021/12/14 02:35:51;;;;;;;12.23;7.30;;;5.40;99.90;;;;;;5066896;28;20200;-69
2021/12/14 02:38:20;;;;;;;14.65;9.13;;;5.40;99.90;;;;;;5066647;28;20679;-70
2021/12/14 02:40:55;;;;;;;12.68;6.93;;;5.40;99.90;;;;;;5066638;28;20212;-71
2021/12/14 02:43:23;;;;;;;14.02;7.32;;;5.40;99.90;;;;;;5066263;28;20601;-70
2021/12/14 02:45:51;;;;;;;12.55;6.40;;;5.40;99.90;;;;;;5066602;28;20204;-69
2021/12/14 02:48:18;;;;;;;12.82;7.50;;;5.40;99.90;;;;;;5066153;28;20205;-70
2021/12/14 02:50:45;;;;;;;14.02;7.47;;;5.40;99.90;;;;;;5066371;28;20201;-70
2021/12/14 02:53:12;;;;;;;23.75;8.15;;;5.40;99.90;;;;;;5061358;28;20224;-69
2021/12/14 02:55:40;;;;;;;13.48;7.63;;;5.40;99.90;;;;;;5053184;28;20201;-70
2021/12/14 02:58:09;;;;;;;10.40;6.75;;;5.30;99.90;;;;;;5053395;28;20601;-70
2021/12/14 03:00:41;;;;;;;28.45;8.00;;;5.30;99.90;;;;;;5052850;28;20205;-70
2021/12/14 03:03:10;;;;;;;26.15;8.60;;;5.30;99.90;;;;;;5052661;28;20225;-70
2021/12/14 03:05:39;;;;;;;18.77;7.20;;;5.20;99.90;;;;;;5052920;28;20658;-70
2021/12/14 03:08:12;;;;;;;18.40;7.85;;;5.20;99.90;;;;;;5053212;28;20204;-70
2021/12/14 03:10:54;;;;;;;23.17;7.35;;;5.20;99.90;;;;;;5052708;28;20246;-68
2021/12/14 03:13:21;;;;;;;14.77;6.88;;;5.10;99.90;;;;;;5053105;28;20217;-70
2021/12/14 03:15:54;;;;;;;13.88;6.45;;;5.10;99.90;;;;;;5052637;28;20204;-70
2021/12/14 03:18:23;;;;;;;17.88;6.90;;;5.00;99.90;;;;;;5052957;28;20577;-70
2021/12/14 03:20:52;;;;;;;17.50;9.40;;;5.00;99.90;;;;;;5052656;28;20201;-68
2021/12/14 03:23:22;;;;;;;13.05;7.45;;;4.90;99.90;;;;;;5052440;28;20220;-68
2021/12/14 03:25:54;;;;;;;21.08;7.57;;;4.90;99.90;;;;;;5052802;28;20212;-69
2021/12/14 03:28:23;;;;;;;13.88;6.22;;;4.90;99.90;;;;;;5052627;28;20201;-69
2021/12/14 03:31:02;;;;;;;18.52;6.15;;;4.80;99.90;;;;;;5052497;28;20224;-70
2021/12/14 03:33:33;;;;;;;16.95;6.35;;;4.70;99.90;;;;;;5052298;28;20217;-69
2021/12/14 03:36:04;;;;;;;17.10;7.10;;;4.70;99.90;;;;;;5052489;28;20216;-70
2021/12/14 03:38:34;;;;;;;17.15;6.15;;;4.60;99.90;;;;;;5052457;28;20703;-68
2021/12/14 03:41:07;;;;;;;11.25;6.10;;;4.60;99.90;;;;;;5051836;28;20209;-69
2021/12/14 03:43:35;;;;;;;8.18;5.10;;;4.50;99.90;;;;;;5052439;28;20252;-70
2021/12/14 03:46:02;;;;;;;8.40;4.82;;;4.40;99.90;;;;;;5051901;28;20550;-68
2021/12/14 03:50:57;;;;;;;9.02;4.72;;;4.30;99.90;;;;;;5010865;28;20218;-70
2021/12/14 03:53:24;;;;;;;6.18;4.45;;;4.30;99.90;;;;;;5009505;28;20586;-70
2021/12/14 03:55:54;;;;;;;8.02;4.20;;;4.30;99.90;;;;;;5009255;28;20214;-69
2021/12/14 03:58:25;;;;;;;7.85;4.70;;;4.40;99.90;;;;;;5009433;28;20206;-70
2021/12/14 04:00:58;;;;;;;5.55;4.47;;;4.40;99.90;;;;;;5008723;28;20673;-70
2021/12/14 04:03:28;;;;;;;7.05;4.75;;;4.50;99.90;;;;;;5008951;28;20280;-70
2021/12/14 04:05:55;;;;;;;10.23;4.70;;;4.40;99.90;;;;;;5008140;28;20214;-68
2021/12/14 04:08:23;;;;;;;6.70;4.93;;;4.40;99.90;;;;;;5011338;28;20206;-70
2021/12/14 04:10:51;;;;;;;6.97;5.10;;;4.40;99.90;;;;;;5011540;28;20202;-70
2021/12/14 04:13:22;;;;;;;6.72;4.43;;;4.40;99.90;;;;;;5011372;28;20222;-70
2021/12/14 04:15:49;;;;;;;6.85;4.68;;;4.40;99.90;;;;;;5011748;28;20206;-70
2021/12/14 04:18:16;;;;;;;10.10;4.65;;;4.40;99.90;;;;;;5011563;28;20206;-70
2021/12/14 04:20:46;;;;;;;7.90;4.78;;;4.30;99.90;;;;;;5011506;28;20221;-70
2021/12/14 04:23:17;;;;;;;7.53;4.93;;;4.20;99.90;;;;;;5011147;28;20701;-70
2021/12/14 04:25:46;;;;;;;7.72;5.30;;;4.20;99.90;;;;;;5011054;28;20203;-69
2021/12/14 04:28:17;;;;;;;12.70;4.72;;;4.20;99.90;;;;;;5011848;28;20202;-70
2021/12/14 04:30:46;;;;;;;20.42;4.82;;;4.20;99.90;;;;;;5010756;28;20210;-69
2021/12/14 04:33:16;;;;;;;9.18;4.55;;;4.20;99.90;;;;;;5008726;28;20609;-68
2021/12/14 04:35:45;;;;;;;8.65;4.78;;;4.20;99.90;;;;;;5009853;28;20571;-70
2021/12/14 04:38:19;;;;;;;11.77;4.93;;;4.10;99.90;;;;;;5011197;28;20202;-69
2021/12/14 04:51:59;;;;;;;10.35;4.93;;;3.80;99.90;;;;;;5017411;28;20313;-70
2021/12/14 04:54:28;;;;;;;10.10;4.63;;;3.80;99.90;;;;;;5017622;28;20660;-68
2021/12/14 04:56:56;;;;;;;11.75;5.40;;;3.80;99.90;;;;;;5015194;28;20210;-71
2021/12/14 04:59:28;;;;;;;8.80;5.10;;;3.90;99.90;;;;;;5027790;28;20609;-70
2021/12/14 05:02:00;;;;;;;11.23;6.47;;;3.80;99.90;;;;;;5039743;28;20209;-69
2021/12/14 05:04:29;;;;;;;7.00;4.45;;;3.80;99.90;;;;;;5050361;28;20204;-70
2021/12/14 05:07:04;;;;;;;5.80;4.53;;;3.80;99.90;;;;;;5050417;28;20213;-70
2021/12/14 05:09:34;;;;;;;7.85;4.95;;;3.70;99.90;;;;;;5050887;28;20211;-69
2021/12/14 05:12:08;;;;;;;7.05;4.50;;;3.70;99.90;;;;;;5049517;28;20201;-71
2021/12/14 05:14:37;;;;;;;12.60;4.40;;;3.70;99.90;;;;;;5050429;28;20207;-69
2021/12/14 05:17:07;;;;;;;24.98;5.97;;;3.80;99.90;;;;;;5049644;28;20220;-69
2021/12/14 05:19:38;;;;;;;12.00;5.60;;;3.70;99.90;;;;;;5050554;28;20200;-70
2021/12/14 05:22:08;;;;;;;8.90;5.38;;;3.50;99.90;;;;;;5032842;28;20198;-70
2021/12/14 05:24:39;;;;;;;8.05;4.97;;;3.50;99.90;;;;;;5029658;28;20204;-70
2021/12/14 05:27:09;;;;;;;6.55;4.50;;;3.60;99.90;;;;;;5030004;28;20544;-69
2021/12/14 05:29:39;;;;;;;8.50;5.07;;;3.60;99.90;;;;;;5029302;28;20221;-69
2021/12/14 05:32:10;;;;;;;8.38;5.07;;;3.60;99.90;;;;;;5027191;28;20720;-69
2021/12/14 05:34:39;;;;;;;8.57;4.75;;;3.60;99.90;;;;;;5028707;28;20610;-69
2021/12/14 05:37:07;;;;;;;7.38;5.00;;;3.80;99.90;;;;;;5028337;28;20626;-69
2021/12/14 05:39:49;;;;;;;7.18;5.13;;;3.90;99.90;;;;;;5029506;28;20217;-70
2021/12/14 05:45:07;;;;;;;7.00;4.88;;;3.90;99.90;;;;;;5030280;28;20212;-70
2021/12/14 05:47:41;;;;;;;5.88;4.25;;;3.90;99.90;;;;;;5030011;28;20213;-69
2021/12/14 05:50:09;;;;;;;9.40;4.80;;;3.90;99.90;;;;;;5030230;28;20215;-70
2021/12/14 05:52:37;;;;;;;8.23;5.28;;;3.90;99.90;;;;;;5028559;28;20217;-69
2021/12/14 05:55:05;;;;;;;10.00;5.53;;;3.90;99.90;;;;;;5030073;28;20853;-70
2021/12/14 05:57:31;;;;;;;13.48;5.00;;;3.90;99.90;;;;;;5030393;28;20550;-69
2021/12/14 05:59:58;;;;;;;6.70;4.82;;;3.80;99.90;;;;;;5029257;28;20586;-68
2021/12/14 06:02:25;;;;;;;6.70;5.00;;;3.80;99.90;;;;;;5029543;28;20225;-69
2021/12/14 06:04:55;;;;;;;7.05;4.22;;;3.80;99.90;;;;;;5029585;28;20210;-70
2021/12/14 06:07:24;;;;;;;8.18;4.50;;;3.70;99.90;;;;;;5030347;28;20213;-70
2021/12/14 06:09:52;;;;;;;6.35;4.53;;;3.70;99.90;;;;;;5029775;28;20201;-69
2021/12/14 06:12:21;;;;;;;6.78;4.38;;;3.70;99.90;;;;;;5029353;28;20309;-70
2021/12/14 06:14:52;;;;;;;7.53;4.70;;;3.70;99.90;;;;;;5014019;28;20245;-69
2021/12/14 06:17:23;;;;;;;6.40;5.22;;;3.70;99.90;;;;;;5010067;28;20211;-69
2021/12/14 06:19:54;;;;;;;6.38;4.97;;;3.70;99.90;;;;;;5010163;28;20206;-69
2021/12/14 06:22:23;;;;;;;6.88;4.88;;;3.70;99.90;;;;;;5009261;28;20732;-69
2021/12/14 06:24:53;;;;;;;4.70;4.15;;;3.70;99.90;;;;;;5010304;28;20202;-69
2021/12/14 06:27:22;;;;;;;6.15;4.22;;;3.70;99.90;;;;;;5010628;28;20202;-68
2021/12/14 06:29:52;;;;;;;7.15;4.60;;;3.70;99.90;;;;;;5012758;28;20209;-69
2021/12/14 06:32:22;;;;;;;6.97;4.95;;;3.60;99.90;;;;;;5013591;28;20227;-69
2021/12/14 06:34:51;;;;;;;6.28;5.05;;;3.60;99.90;;;;;;5013270;28;20206;-68
2021/12/14 06:38:05;;;;;;;6.65;4.25;;;3.60;99.90;;;;;;5014025;28;20209;-69
2021/12/14 06:40:34;;;;;;;7.78;5.43;;;3.60;99.90;;;;;;5013498;28;20203;-69
2021/12/14 06:43:03;;;;;;;6.63;5.00;;;3.50;99.90;;;;;;5013220;28;20594;-69
2021/12/14 06:45:34;;;;;;;6.85;4.95;;;3.50;99.90;;;;;;5013203;28;20207;-69
2021/12/14 06:48:05;;;;;;;7.05;5.60;;;3.40;99.90;;;;;;5013198;28;20243;-69
2021/12/14 06:50:38;;;;;;;6.57;4.50;;;3.40;99.90;;;;;;5013162;28;20219;-68
2021/12/14 06:53:08;;;;;;;5.00;4.47;;;3.40;99.90;;;;;;5012522;28;20241;-69
2021/12/14 06:55:36;;;;;;;7.38;6.35;;;3.30;99.90;;;;;;5013457;28;20213;-69
2021/12/14 06:58:09;;;;;;;7.10;5.35;;;3.30;99.90;;;;;;5012665;28;20215;-69
2021/12/14 07:00:37;;;;;;;8.15;5.60;;;3.30;99.90;;;;;;5012695;28;20621;-69
2021/12/14 07:03:04;;;;;;;6.60;5.45;;;3.30;99.90;;;;;;5055152;22;20233;-92
2021/12/14 07:05:32;;;;;;;7.32;5.60;;;3.30;99.90;;;;;;5057660;28;20205;-93
2021/12/14 07:07:59;;;;;;;8.02;5.55;;;3.30;99.90;;;;;;5055934;28;20203;-93
2021/12/14 07:10:34;;;;;;;7.38;5.30;;;3.30;99.90;;;;;;5056500;28;20283;-93
2021/12/14 07:13:09;;;;;;;6.15;4.63;;;3.30;99.90;;;;;;5056688;22;20233;-66
2021/12/14 07:15:36;;;;;;;7.13;5.70;;;3.30;99.90;;;;;;5046798;28;20686;-66
2021/12/14 07:18:05;;;;;;;7.97;5.50;;;3.30;99.90;;;;;;5053233;28;20197;-66
2021/12/14 07:20:37;;;;;;;7.25;5.03;;;3.30;99.90;;;;;;5052297;28;20683;-66
2021/12/14 07:23:15;;;;;;;6.55;5.30;;;3.40;99.90;;;;;;5052186;28;20229;-66
2021/12/14 07:25:44;;;;;;;11.27;5.65;;;3.30;99.90;;;;;;5052374;28;20209;-66
2021/12/14 07:28:13;;;;;;;6.57;5.25;;;3.30;99.90;;;;;;5052219;28;20208;-65
2021/12/14 07:30:42;;;;;;;7.80;5.20;;;3.30;99.90;;;;;;5046438;28;20199;-66
2021/12/14 07:33:11;;;;;;;7.43;6.03;;;3.30;99.90;;;;;;5011522;28;20226;-66
2021/12/14 07:35:48;;;;;;;6.78;5.15;;;3.20;99.90;;;;;;5012043;28;20673;-66
2021/12/14 07:38:28;;;;;;;7.65;5.10;;;3.30;99.90;;;;;;5012094;28;20236;-66
2021/12/14 07:41:00;;;;;;;7.20;5.30;;;3.30;99.90;;;;;;5011535;28;20218;-66
2021/12/14 07:43:31;;;;;;;6.63;5.43;;;3.30;99.90;;;;;;5012161;28;20244;-66
2021/12/14 07:45:59;;;;;;;9.30;5.35;;;3.30;99.90;;;;;;5012032;28;20206;-66
2021/12/14 07:48:41;;;;;;;5.97;4.80;;;3.40;99.90;;;;;;5012382;28;20233;-66
2021/12/14 07:51:08;;;;;;;6.70;5.30;;;3.40;99.90;;;;;;5011232;28;20202;-66
2021/12/14 07:53:40;;;;;;;7.18;4.82;;;3.50;99.90;;;;;;5011768;28;20252;-66
2021/12/14 07:56:10;;;;;;;6.30;4.93;;;3.50;99.90;;;;;;5011614;28;20209;-66
2021/12/14 07:58:42;;;;;;;7.15;5.78;;;3.60;99.90;;;;;;5012716;28;20209;-66
2021/12/14 08:01:10;;;;;;;6.40;5.40;;;3.60;99.90;;;;;;5025231;28;20237;-66
2021/12/14 08:03:38;;;;;;;7.32;5.85;;;3.70;99.90;;;;;;5032995;28;20214;-66
2021/12/14 08:06:08;;;;;;;6.07;5.47;;;3.70;99.90;;;;;;5030244;28;20205;-65
2021/12/14 08:08:44;;;;;;;6.40;5.10;;;3.80;99.90;;;;;;5029032;28;20202;-66
2021/12/14 08:11:30;;;;;;;5.60;4.88;;;3.80;99.90;;;;;;5029637;28;20259;-66
2021/12/14 08:13:59;;;;;;;5.97;4.90;;;3.80;99.90;;;;;;5029447;28;20230;-66
2021/12/14 08:16:27;;;;;;;6.63;4.90;;;3.70;99.90;;;;;;5029892;28;20229;-66
2021/12/14 08:18:54;;;;;;;7.82;5.07;;;3.70;99.90;;;;;;5029886;28;20983;-66
2021/12/14 08:21:24;;;;;;;8.55;5.50;;;3.70;99.90;;;;;;5029312;28;20206;-66
2021/12/14 08:23:54;;;;;;;6.30;4.75;;;3.70;99.90;;;;;;5029004;28;20742;-66
2021/12/14 08:26:25;;;;;;;5.85;4.85;;;3.80;99.90;;;;;;5029530;28;20206;-67
2021/12/14 08:28:55;;;;;;;5.78;5.18;;;3.90;99.90;;;;;;5029476;28;20202;-66
2021/12/14 08:31:25;;;;;;;7.43;6.13;;;4.00;99.90;;;;;;5028736;28;20209;-66
2021/12/14 08:33:57;;;;;;;5.90;4.63;;;4.10;99.90;;;;;;5019165;28;20711;-66
2021/12/14 08:36:25;;;;;;;6.15;5.10;;;4.10;99.90;;;;;;5020524;28;20249;-66
2021/12/14 08:39:04;;;;;;;5.25;4.45;;;4.20;99.90;;;;;;5017163;28;20209;-66
2021/12/14 08:41:32;;;;;;;5.78;4.68;;;4.30;99.90;;;;;;5028528;28;20208;-66
2021/12/14 08:44:08;;;;;;;4.43;4.00;;;4.40;99.90;;;;;;5028905;28;20221;-67
2021/12/14 08:46:35;;;;;;;4.40;4.00;;;4.50;99.90;;;;;;5028801;28;20205;-66
2021/12/14 08:49:06;;;;;;;7.97;6.07;;;4.70;99.90;;;;;;5029597;28;20206;-68
2021/12/14 08:51:36;;;;;;;7.15;5.10;;;5.00;99.90;;;;;;5027798;28;20210;-66
2021/12/14 08:54:12;;;;;;;7.10;5.05;;;5.30;99.90;;;;;;5028763;28;20245;-66
2021/12/14 08:56:45;;;;;;;5.35;4.70;;;5.70;99.90;;;;;;5043742;28;20209;-66
2021/12/14 08:59:12;;;;;;;6.03;4.80;;;6.00;99.90;;;;;;5049616;28;20201;-66
2021/12/14 09:01:40;;;;;;;5.28;4.78;;;6.20;99.90;;;;;;5046486;28;20209;-66
2021/12/14 09:04:11;;;;;;;5.03;4.53;;;6.50;99.90;;;;;;5029050;28;20226;-66
2021/12/14 09:06:41;;;;;;;5.30;4.50;;;6.70;99.90;;;;;;5029098;28;20209;-66
2021/12/14 09:09:11;;;;;;;6.65;4.95;;;6.40;99.90;;;;;;5029337;28;20255;-66
2021/12/14 09:11:41;;;;;;;5.35;4.63;;;6.10;99.90;;;;;;5029257;28;20212;-66
2021/12/14 09:14:13;;;;;;;4.85;4.35;;;6.30;99.90;;;;;;5028747;28;20988;-66
2021/12/14 09:16:41;;;;;;;9.55;4.75;;;6.60;99.90;;;;;;5029508;28;20917;-66
2021/12/14 09:19:11;;;;;;;5.40;4.15;;;6.90;99.90;;;;;;5029731;28;20213;-66
2021/12/14 09:21:42;;;;;;;4.88;4.38;;;7.30;99.90;;;;;;5027392;28;20266;-67
2021/12/14 09:24:17;;;;;;;5.82;4.75;;;8.00;99.90;;;;;;5029307;28;20225;-67
2021/12/14 09:26:48;;;;;;;7.95;4.90;;;8.90;99.90;;;;;;5026765;28;20205;-67
2021/12/14 09:29:19;;;;;;;4.20;3.80;;;10.10;99.90;;;;;;5031017;28;20197;-67
2021/12/14 09:31:49;;;;;;;4.57;4.18;;;10.60;99.90;;;;;;5048330;28;20196;-67
2021/12/14 09:34:18;;;;;;;3.78;3.47;;;10.60;99.90;;;;;;5049013;28;20205;-67
2021/12/14 09:36:45;;;;;;;3.78;3.42;;;10.60;99.90;;;;;;5048556;28;20288;-67
2021/12/14 09:39:17;;;;;;;3.95;3.40;;;10.80;99.90;;;;;;5049201;28;20200;-66
2021/12/14 09:41:50;;;;;;;3.45;3.08;;;10.80;99.90;;;;;;5048273;28;20292;-67
2021/12/14 09:44:17;;;;;;;4.30;3.28;;;10.40;99.90;;;;;;5047448;28;20327;-67
2021/12/14 09:46:44;;;;;;;3.85;2.97;;;10.10;99.90;;;;;;5027167;28;20202;-66
2021/12/14 09:49:13;;;;;;;5.28;4.75;;;10.30;99.90;;;;;;5029568;28;20205;-66
2021/12/14 09:51:44;;;;;;;4.50;4.10;;;11.30;99.90;;;;;;5027213;28;20206;-66
2021/12/14 09:54:15;;;;;;;5.78;5.05;;;12.50;99.90;;;;;;5028461;28;20218;-66
2021/12/14 09:56:47;;;;;;;7.10;5.13;;;12.60;99.90;;;;;;5025433;28;20296;-65
2021/12/14 09:59:15;;;;;;;5.43;4.60;;;12.60;99.90;;;;;;5028833;28;20197;-65
2021/12/14 10:01:45;;;;;;;7.03;5.05;;;12.50;99.90;;;;;;5028588;28;20576;-65
2021/12/14 10:04:16;;;;;;;7.50;5.20;;;12.10;99.90;;;;;;5030860;28;20228;-65
2021/12/14 10:06:43;;;;;;;5.80;4.82;;;11.40;99.90;;;;;;5032756;28;20201;-65
2021/12/14 10:09:14;;;;;;;6.20;4.80;;;10.90;99.90;;;;;;5032653;28;20211;-65
2021/12/14 10:12:01;;;;;;;6.88;4.20;;;10.50;99.90;;;;;;5021830;28;20623;-65
2021/12/14 10:14:33;;;;;;;4.65;3.58;;;10.30;99.90;;;;;;5013692;28;20218;-65
2021/12/14 10:17:01;;;;;;;5.00;4.00;;;10.10;99.90;;;;;;5013265;28;20224;-65
2021/12/14 10:19:33;;;;;;;7.00;3.75;;;9.90;99.90;;;;;;5013463;28;20261;-65
2021/12/14 10:22:04;;;;;;;4.28;3.85;;;9.70;99.90;;;;;;5012559;28;20238;-65
2021/12/14 10:24:32;;;;;;;4.65;3.40;;;9.50;99.90;;;;;;5013721;28;20739;-65
2021/12/14 10:27:05;;;;;;;4.68;3.58;;;9.40;99.90;;;;;;5013364;28;20296;-67
2021/12/14 10:29:32;;;;;;;4.70;3.80;;;9.30;99.90;;;;;;5013401;28;20590;-68
2021/12/14 10:32:03;;;;;;;3.40;3.10;;;9.20;99.90;;;;;;5012867;28;20629;-68
2021/12/14 10:34:34;;;;;;;4.82;4.03;;;9.10;99.90;;;;;;5012537;28;20294;-68
2021/12/14 10:37:10;;;;;;;4.43;4.00;;;9.00;99.90;;;;;;5013293;28;20629;-68
2021/12/14 10:42:37;;;;;;;4.22;3.83;;;8.90;99.90;;;;;;5012979;28;20753;-68
2021/12/14 10:42:52;;;;;;;5.78;4.22;;;8.90;99.90;;;;;;5012370;28;20218;-68
2021/12/14 10:45:19;;;;;;;4.63;3.72;;;8.80;99.90;;;;;;5012904;28;20736;-65
2021/12/14 10:47:47;;;;;;;4.55;4.15;;;8.90;99.90;;;;;;5012630;28;20206;-65
2021/12/14 10:50:21;;;;;;;4.93;4.18;;;9.00;99.90;;;;;;5013159;28;20627;-68
2021/12/14 10:52:49;;;;;;;4.85;4.38;;;9.10;99.90;;;;;;5011527;28;20706;-68
2021/12/14 10:55:21;;;;;;;6.57;4.03;;;9.30;99.90;;;;;;5013062;28;20223;-68
2021/12/14 10:57:50;;;;;;;3.88;3.50;;;9.50;99.90;;;;;;5012084;28;20337;-68
2021/12/14 11:00:28;;;;;;;8.70;4.50;;;9.80;99.90;;;;;;5012884;28;20669;-68
2021/12/14 11:03:00;;;;;;;5.47;3.65;;;10.10;99.90;;;;;;5021521;28;20929;-68
2021/12/14 11:05:28;;;;;;;5.70;3.60;;;10.50;99.90;;;;;;5031586;28;20249;-68
2021/12/14 11:07:55;;;;;;;4.22;3.83;;;10.90;99.90;;;;;;5032756;28;20277;-65
2021/12/14 11:10:26;;;;;;;3.80;3.40;;;11.20;99.90;;;;;;5032413;28;20552;-65
2021/12/14 11:12:58;;;;;;;5.65;3.50;;;11.10;99.90;;;;;;5030973;28;20320;-65
2021/12/14 11:15:30;;;;;;;3.65;3.35;;;10.80;99.90;;;;;;5032127;28;20208;-65
2021/12/14 11:18:10;;;;;;;4.07;3.28;;;10.70;99.90;;;;;;5031391;28;20206;-65
2021/12/14 11:20:42;;;;;;;3.53;3.22;;;10.80;99.90;;;;;;5031729;28;20198;-65
2021/12/14 11:23:12;;;;;;;14.20;3.63;;;11.20;99.90;;;;;;5031441;28;20280;-68
2021/12/14 11:25:53;;;;;;;3.50;3.20;;;11.50;99.90;;;;;;5031728;28;20218;-66
2021/12/14 11:28:29;;;;;;;3.25;2.95;;;11.80;99.90;;;;;;5031653;28;20206;-66
2021/12/14 11:31:01;;;;;;;3.53;3.22;;;12.50;99.90;;;;;;5030952;28;20241;-66
2021/12/14 11:33:31;;;;;;;3.92;3.00;;;13.20;99.90;;;;;;5031455;28;20310;-65
2021/12/14 11:36:10;;;;;;;3.50;3.20;;;13.90;99.90;;;;;;5031221;28;20209;-66
2021/12/14 11:38:42;;;;;;;3.70;3.05;;;14.40;99.90;;;;;;5031515;28;20208;-66
2021/12/14 11:41:30;;;;;;;4.35;3.95;;;14.40;99.90;;;;;;5030640;28;20202;-66
2021/12/14 11:44:06;;;;;;;6.55;3.88;;;14.60;99.90;;;;;;5030807;28;20236;-67
2021/12/14 11:46:35;;;;;;;4.95;3.20;;;14.90;99.90;;;;;;5031310;28;20302;-66
2021/12/14 11:49:05;;;;;;;3.90;3.20;;;15.20;99.90;;;;;;5030929;28;20201;-66
2021/12/14 11:51:33;;;;;;;4.30;3.33;;;15.50;99.90;;;;;;5030838;28;20457;-66
2021/12/14 11:54:01;;;;;;;8.73;5.30;;;15.50;99.90;;;;;;5030763;28;20484;-66
2021/12/14 11:56:32;;;;;;;4.07;3.67;;;16.00;99.90;;;;;;5031256;28;20464;-66
2021/12/14 11:59:04;;;;;;;4.43;3.50;;;15.80;99.90;;;;;;5030848;28;20460;-66
2021/12/14 12:01:34;;;;;;;5.17;4.07;;;15.70;99.90;;;;;;5030896;28;20983;-66
2021/12/14 12:04:03;;;;;;;5.03;3.80;;;15.80;99.90;;;;;;5030846;28;20512;-66
2021/12/14 12:09:28;;;;;;;4.87;3.73;;;15.90;99.90;;;;;;5030700;28;20484;-66
2021/12/14 12:09:38;;;;;;;3.90;3.60;;;15.90;99.90;;;;;;5030888;28;20448;-66
2021/12/14 12:12:14;;;;;;;5.70;3.90;;;15.50;99.90;;;;;;5030178;28;20519;-66
2021/12/14 12:14:46;;;;;;;4.27;3.87;;;15.00;99.90;;;;;;5030717;28;20467;-66
2021/12/14 12:17:20;;;;;;;8.80;3.80;;;14.60;99.90;;;;;;5027877;28;20468;-66
2021/12/14 12:20:00;;;;;;;3.42;3.13;;;14.20;99.90;;;;;;5030104;28;20978;-66
2021/12/14 12:22:32;;;;;;;6.82;4.40;;;13.90;99.90;;;;;;5031144;28;20314;-66
2021/12/14 12:25:00;;;;;;;4.85;4.45;;;13.50;99.90;;;;;;5029996;28;20225;-66
2021/12/14 12:27:32;;;;;;;4.75;4.25;;;13.00;99.90;;;;;;5029488;28;20201;-66
2021/12/14 12:30:37;;;;;;;5.32;4.65;;;12.60;99.90;;;;;;5029849;28;20210;-66
2021/12/14 12:33:21;;;;;;;5.75;5.05;;;12.30;99.90;;;;;;5029916;28;20226;-66
2021/12/14 12:35:51;;;;;;;7.30;5.57;;;11.90;99.90;;;;;;5030295;28;20193;-67
2021/12/14 12:38:24;;;;;;;5.65;4.85;;;11.60;99.90;;;;;;5030950;28;20244;-66
2021/12/14 12:40:54;;;;;;;8.20;6.10;;;11.50;99.90;;;;;;5030499;28;20308;-67
2021/12/14 12:43:27;;;;;;;5.28;4.75;;;11.40;99.90;;;;;;5030308;28;20317;-66
2021/12/14 12:46:12;;;;;;;6.55;5.28;;;11.30;99.90;;;;;;5029481;28;20664;-66
2021/12/14 12:48:50;;;;;;;5.93;4.93;;;11.20;99.90;;;;;;5027617;28;20201;-67
2021/12/14 12:51:51;;;;;;;7.13;5.25;;;11.10;99.90;;;;;;5029782;28;20212;-67
2021/12/14 12:54:32;;;;;;;6.45;4.75;;;11.20;99.90;;;;;;5029342;28;20304;-67
2021/12/14 12:57:28;;;;;;;5.55;4.90;;;11.30;99.90;;;;;;5029532;28;20206;-67
2021/12/14 13:00:00;;;;;;;7.25;5.18;;;11.40;99.90;;;;;;5029112;28;20616;-66
2021/12/14 13:02:33;;;;;;;12.45;5.30;;;11.30;99.90;;;;;;5031336;28;20217;-67
2021/12/14 13:05:05;;;;;;;7.93;4.72;;;11.20;99.90;;;;;;5029413;28;20221;-67
2021/12/14 13:07:35;;;;;;;6.65;5.70;;;11.00;99.90;;;;;;5029760;28;20212;-66
2021/12/14 13:10:14;;;;;;;7.97;5.60;;;10.90;99.90;;;;;;5029478;28;20206;-66
2021/12/14 13:12:45;;;;;;;6.45;5.57;;;10.80;99.90;;;;;;5028335;28;20737;-66
2021/12/14 13:15:47;;;;;;;6.15;5.55;;;10.70;99.90;;;;;;5029744;28;20194;-66
2021/12/14 13:18:39;;;;;;;7.38;6.00;;;10.70;99.90;;;;;;4967436;28;20215;-67
2021/12/14 13:21:14;;;;;;;5.60;4.85;;;10.70;99.90;;;;;;5029348;28;20209;-66
2021/12/14 13:24:03;;;;;;;7.00;5.70;;;10.70;99.90;;;;;;5028644;28;20598;-66
2021/12/14 13:26:47;;;;;;;6.57;4.85;;;10.60;99.90;;;;;;5029311;28;20240;-66
2021/12/14 13:29:21;;;;;;;5.70;5.10;;;10.50;99.90;;;;;;5027615;28;20232;-67
2021/12/14 13:31:53;;;;;;;6.30;5.68;;;10.40;99.90;;;;;;5028181;28;20583;-67
2021/12/14 13:34:25;;;;;;;8.00;6.78;;;10.30;99.90;;;;;;5028929;28;20213;-67
2021/12/14 13:36:52;;;;;;;7.43;6.65;;;10.20;99.90;;;;;;5028608;28;20204;-66